Time;durP1;ratioP1;P1;durP2;ratioP2;P2;SDS_P1;SDS_P2;PMS_P1;PMS_P2;Temp;Humidity;BMP_temperature;BMP_pressure;BME280_temperature;BME280_humidity;BME280_pressure;Samples;Min_cycle;Max_cycle;Signal;HPM_P1;HPM_P2
2021/06/19 00:00:31;;;;;;;12.98;3.38;;;24.60;75.20;;;;;;5072807;28;20020;-79
2021/06/19 00:02:58;;;;;;;8.07;2.95;;;24.60;74.70;;;;;;5072412;28;20032;-79
2021/06/19 00:05:25;;;;;;;8.55;3.00;;;24.60;74.70;;;;;;5054530;28;20105;-78
2021/06/19 00:07:51;;;;;;;9.25;3.03;;;24.50;74.90;;;;;;5054176;28;20402;-80
2021/06/19 00:10:17;;;;;;;10.55;3.25;;;24.60;74.90;;;;;;5054749;28;20419;-79
2021/06/19 00:12:44;;;;;;;10.18;3.15;;;24.60;74.50;;;;;;5072520;28;20028;-79
2021/06/19 00:15:12;;;;;;;8.80;3.58;;;24.60;74.70;;;;;;5071505;28;20102;-79
2021/06/19 00:17:38;;;;;;;8.27;3.20;;;24.60;75.50;;;;;;5054671;28;20074;-79
2021/06/19 00:20:10;;;;;;;10.60;3.75;;;24.60;76.00;;;;;;5054488;28;20016;-79
2021/06/19 00:22:36;;;;;;;9.55;3.35;;;24.60;75.60;;;;;;5072400;28;20047;-79
2021/06/19 00:25:03;;;;;;;10.90;3.35;;;24.60;77.20;;;;;;5071761;28;20016;-79
2021/06/19 00:27:29;;;;;;;9.55;3.40;;;24.50;76.70;;;;;;5063283;28;20021;-79
2021/06/19 00:29:54;;;;;;;7.65;3.15;;;24.50;76.20;;;;;;5051859;28;20025;-79
2021/06/19 00:32:20;;;;;;;8.43;3.28;;;24.50;76.10;;;;;;5052491;28;20028;-79
2021/06/19 00:34:45;;;;;;;11.77;3.55;;;24.50;75.90;;;;;;5054925;28;20051;-79
2021/06/19 00:37:12;;;;;;;9.35;3.42;;;24.60;75.90;;;;;;5055140;28;20074;-79
2021/06/19 00:39:38;;;;;;;11.02;3.80;;;24.50;76.10;;;;;;5038437;28;20056;-79
2021/06/19 00:42:05;;;;;;;8.63;3.63;;;24.50;76.50;;;;;;5037975;28;20053;-79
2021/06/19 00:44:30;;;;;;;11.05;3.20;;;24.50;76.00;;;;;;5050256;28;20053;-79
2021/06/19 00:46:57;;;;;;;13.23;3.20;;;24.50;76.10;;;;;;5055567;28;20028;-79
2021/06/19 00:49:24;;;;;;;8.77;3.38;;;24.50;76.40;;;;;;5054895;28;20032;-79
2021/06/19 00:51:50;;;;;;;7.57;3.42;;;24.50;76.70;;;;;;5054270;28;20033;-79
2021/06/19 00:54:16;;;;;;;12.57;3.80;;;24.50;76.90;;;;;;5053930;28;20446;-79
2021/06/19 00:56:42;;;;;;;8.73;3.42;;;24.40;76.90;;;;;;5055596;28;20027;-79
2021/06/19 00:59:10;;;;;;;9.13;3.55;;;24.50;76.90;;;;;;5037462;28;20028;-79
2021/06/19 01:01:36;;;;;;;10.85;3.72;;;24.40;77.00;;;;;;5055522;28;20366;-79
2021/06/19 01:04:04;;;;;;;12.10;4.10;;;24.30;76.90;;;;;;5037642;28;20025;-79
2021/06/19 01:06:31;;;;;;;7.60;3.63;;;24.30;77.00;;;;;;5037708;28;20025;-79
2021/06/19 01:08:57;;;;;;;9.55;4.07;;;24.30;77.40;;;;;;5037078;28;20025;-79
2021/06/19 01:11:25;;;;;;;10.63;4.15;;;24.30;77.70;;;;;;5037508;28;20442;-80
2021/06/19 01:13:52;;;;;;;7.85;3.47;;;24.20;78.20;;;;;;5037937;28;20474;-79
2021/06/19 01:16:19;;;;;;;9.10;3.92;;;24.20;78.30;;;;;;5036903;28;20025;-79
2021/06/19 01:18:45;;;;;;;13.88;4.13;;;24.10;79.50;;;;;;5037686;28;20021;-79
2021/06/19 01:21:16;;;;;;;7.70;3.67;;;24.10;79.90;;;;;;5054890;28;20060;-79
2021/06/19 01:23:43;;;;;;;9.27;3.47;;;24.10;80.80;;;;;;5037227;28;20025;-79
2021/06/19 01:26:12;;;;;;;10.25;4.00;;;24.00;81.10;;;;;;5036932;28;20078;-79
2021/06/19 01:28:37;;;;;;;13.98;4.30;;;23.90;82.00;;;;;;5073013;28;20021;-79
2021/06/19 01:31:03;;;;;;;11.13;4.07;;;23.90;81.90;;;;;;5056913;28;20024;-79
2021/06/19 01:33:28;;;;;;;9.40;4.07;;;24.00;82.00;;;;;;5075435;28;20039;-79
2021/06/19 01:35:54;;;;;;;11.05;4.00;;;24.00;81.50;;;;;;5057202;28;20339;-79
2021/06/19 01:38:20;;;;;;;11.38;4.28;;;23.90;81.60;;;;;;5075050;28;20096;-79
2021/06/19 01:40:46;;;;;;;8.52;3.80;;;23.70;81.40;;;;;;5057425;28;20051;-79
2021/06/19 01:43:11;;;;;;;7.93;3.88;;;23.70;82.20;;;;;;5056199;28;20059;-79
2021/06/19 01:45:37;;;;;;;6.85;4.05;;;23.80;82.30;;;;;;5074490;28;20025;-79
2021/06/19 01:48:05;;;;;;;10.20;4.55;;;23.80;82.00;;;;;;5056446;28;20230;-79
2021/06/19 01:50:31;;;;;;;7.30;3.90;;;23.90;82.10;;;;;;5056539;28;20020;-77
2021/06/19 01:52:58;;;;;;;8.52;4.28;;;23.90;82.10;;;;;;5056528;28;20025;-79
2021/06/19 01:55:24;;;;;;;8.77;4.15;;;23.90;82.30;;;;;;5074629;28;20019;-79
2021/06/19 01:57:52;;;;;;;7.85;4.07;;;23.90;82.50;;;;;;5053341;28;20017;-79
2021/06/19 02:00:29;;;;;;;10.82;4.25;;;23.80;82.40;;;;;;5053084;28;20092;-79
2021/06/19 02:02:56;;;;;;;10.00;4.25;;;23.90;82.20;;;;;;5053670;28;20021;-79
2021/06/19 02:05:23;;;;;;;10.38;4.30;;;23.80;82.70;;;;;;5054049;28;20101;-79
2021/06/19 02:08:01;;;;;;;8.82;4.32;;;23.80;83.00;;;;;;5053209;28;20029;-80
2021/06/19 02:10:29;;;;;;;11.75;4.32;;;23.70;83.70;;;;;;5054345;28;20521;-79
2021/06/19 02:12:55;;;;;;;11.15;4.65;;;23.70;83.50;;;;;;5055373;28;20107;-77
2021/06/19 02:15:23;;;;;;;11.57;4.50;;;23.70;83.30;;;;;;5053445;28;20017;-77
2021/06/19 02:17:49;;;;;;;12.38;4.53;;;23.70;84.00;;;;;;5053438;28;20024;-77
2021/06/19 02:20:17;;;;;;;13.20;4.63;;;23.60;84.20;;;;;;5053252;28;20098;-77
2021/06/19 02:22:43;;;;;;;10.80;5.10;;;23.60;84.60;;;;;;5054791;28;20462;-80
2021/06/19 02:25:14;;;;;;;8.60;4.78;;;23.60;85.10;;;;;;5053173;28;20032;-80
2021/06/19 02:27:51;;;;;;;12.48;5.40;;;23.50;85.60;;;;;;5053592;28;20025;-80
2021/06/19 02:30:18;;;;;;;8.52;5.13;;;23.60;85.90;;;;;;5053051;28;20043;-80
2021/06/19 02:32:44;;;;;;;10.57;5.43;;;23.60;85.50;;;;;;5053280;28;20029;-80
2021/06/19 02:35:10;;;;;;;9.75;5.43;;;23.70;85.70;;;;;;5052828;28;20112;-80
2021/06/19 02:37:36;;;;;;;12.38;5.93;;;23.70;85.50;;;;;;5053258;28;20031;-79
2021/06/19 02:40:03;;;;;;;11.88;5.60;;;23.70;85.50;;;;;;5052759;28;20020;-80
2021/06/19 02:42:29;;;;;;;10.98;5.38;;;23.70;85.70;;;;;;5053161;28;20083;-80
2021/06/19 02:44:55;;;;;;;10.50;5.18;;;23.70;86.00;;;;;;5056234;28;20048;-80
2021/06/19 02:47:21;;;;;;;10.85;5.63;;;23.70;86.40;;;;;;5073882;28;20441;-80
2021/06/19 02:49:46;;;;;;;7.30;4.93;;;23.70;85.40;;;;;;5056438;28;20020;-80
2021/06/19 02:52:12;;;;;;;13.13;6.05;;;23.70;85.60;;;;;;5047496;28;20373;-80
2021/06/19 02:54:40;;;;;;;7.82;5.35;;;23.70;85.30;;;;;;5053884;28;20033;-80
2021/06/19 02:57:10;;;;;;;9.23;5.57;;;23.70;85.30;;;;;;5052388;28;20013;-80
2021/06/19 02:59:39;;;;;;;11.23;5.32;;;23.70;85.40;;;;;;5036129;28;20027;-81
2021/06/19 03:02:05;;;;;;;10.48;5.78;;;23.60;85.60;;;;;;5035913;28;20024;-81
2021/06/19 03:04:30;;;;;;;9.90;5.72;;;23.50;85.90;;;;;;5036494;28;20017;-81
2021/06/19 03:06:56;;;;;;;9.07;5.05;;;23.50;86.20;;;;;;5036111;28;20055;-79
2021/06/19 03:09:22;;;;;;;8.18;4.82;;;23.50;86.40;;;;;;5035231;28;20021;-79
2021/06/19 03:11:48;;;;;;;8.85;5.03;;;23.50;86.80;;;;;;5035556;28;20025;-79
2021/06/19 03:14:15;;;;;;;10.68;5.70;;;23.30;87.30;;;;;;5053004;28;20113;-79
2021/06/19 03:16:41;;;;;;;13.73;6.13;;;23.40;87.10;;;;;;5035296;28;20021;-79
2021/06/19 03:19:09;;;;;;;8.52;5.18;;;23.40;87.00;;;;;;5053001;28;20052;-79
2021/06/19 03:21:35;;;;;;;10.20;6.03;;;23.40;86.70;;;;;;5035600;28;20120;-79
2021/06/19 03:24:01;;;;;;;12.20;5.75;;;23.40;87.00;;;;;;5035222;28;20032;-80
2021/06/19 03:26:27;;;;;;;9.73;5.30;;;23.30;87.10;;;;;;5035517;28;20020;-78
2021/06/19 03:28:53;;;;;;;11.57;5.53;;;23.40;87.00;;;;;;5053079;28;20423;-78
2021/06/19 03:31:19;;;;;;;11.23;5.65;;;23.40;86.70;;;;;;5034792;28;20028;-78
2021/06/19 03:33:44;;;;;;;12.50;5.50;;;23.50;86.70;;;;;;5034979;28;20369;-78
2021/06/19 03:36:10;;;;;;;10.02;5.55;;;23.40;86.60;;;;;;5034944;28;20111;-79
2021/06/19 03:38:36;;;;;;;10.18;5.43;;;23.40;86.70;;;;;;5035539;28;20020;-79
2021/06/19 03:41:01;;;;;;;12.93;5.75;;;23.40;87.00;;;;;;5035288;28;20046;-78
2021/06/19 03:43:27;;;;;;;11.05;5.70;;;23.40;87.20;;;;;;5034780;28;20052;-78
2021/06/19 03:45:53;;;;;;;11.32;5.45;;;23.40;87.10;;;;;;5035281;28;20458;-79
2021/06/19 03:48:19;;;;;;;11.23;5.28;;;23.30;87.20;;;;;;5034460;28;20106;-78
2021/06/19 03:50:44;;;;;;;9.10;5.85;;;23.30;87.30;;;;;;5035079;28;20021;-79
2021/06/19 03:53:10;;;;;;;10.32;5.28;;;23.30;87.00;;;;;;5052572;28;20063;-79
2021/06/19 03:55:36;;;;;;;13.13;5.88;;;23.30;86.90;;;;;;5034938;28;20472;-78
2021/06/19 03:58:02;;;;;;;12.25;5.40;;;23.30;86.70;;;;;;5052842;28;20068;-79
2021/06/19 04:00:29;;;;;;;9.77;5.63;;;23.30;86.80;;;;;;5052575;28;20342;-79
2021/06/19 04:02:55;;;;;;;10.02;5.47;;;23.30;86.60;;;;;;5035240;28;20051;-78
2021/06/19 04:05:21;;;;;;;8.40;6.03;;;23.30;86.60;;;;;;5034753;28;20058;-79
2021/06/19 04:07:47;;;;;;;13.20;5.60;;;23.30;86.60;;;;;;5034945;28;20021;-79
2021/06/19 04:10:14;;;;;;;9.75;6.00;;;23.30;87.00;;;;;;5038317;28;20088;-79
2021/06/19 04:12:40;;;;;;;10.00;5.47;;;23.20;87.10;;;;;;5056916;28;20090;-79
2021/06/19 04:15:07;;;;;;;10.15;5.50;;;23.30;86.90;;;;;;5038485;28;20123;-79
2021/06/19 04:17:33;;;;;;;9.93;5.55;;;23.30;87.00;;;;;;5056877;28;20513;-79
2021/06/19 04:19:59;;;;;;;8.82;5.75;;;23.30;87.00;;;;;;5038635;28;20159;-79
2021/06/19 04:22:24;;;;;;;12.05;5.57;;;23.30;86.80;;;;;;5038451;28;20084;-80
2021/06/19 04:24:50;;;;;;;10.80;6.00;;;23.30;86.60;;;;;;5039136;28;20110;-80
2021/06/19 04:27:19;;;;;;;10.15;5.50;;;23.30;86.90;;;;;;5038454;28;20021;-80
2021/06/19 04:29:45;;;;;;;14.25;5.65;;;23.30;86.70;;;;;;5038991;28;20029;-79
2021/06/19 04:32:12;;;;;;;11.27;5.35;;;23.40;86.50;;;;;;5038282;28;20032;-80
2021/06/19 04:34:42;;;;;;;13.38;6.13;;;23.40;86.10;;;;;;5035702;28;20079;-79
2021/06/19 04:37:12;;;;;;;10.07;5.55;;;23.40;86.10;;;;;;5038110;28;20025;-80
2021/06/19 04:39:42;;;;;;;8.15;5.63;;;23.40;86.10;;;;;;5056668;28;20071;-79
2021/06/19 04:42:09;;;;;;;10.68;4.95;;;23.40;85.80;;;;;;5038491;28;20451;-80
2021/06/19 04:47:19;;;;;;;9.38;4.97;;;23.50;85.60;;;;;;5036099;28;20025;-80
2021/06/19 04:49:45;;;;;;;9.50;5.55;;;23.60;85.50;;;;;;5018847;28;20050;-80
2021/06/19 04:52:11;;;;;;;9.32;5.05;;;23.60;85.10;;;;;;5035729;28;20025;-80
2021/06/19 04:54:37;;;;;;;10.57;5.03;;;23.60;85.00;;;;;;5036353;28;20044;-79
2021/06/19 04:57:07;;;;;;;9.27;5.38;;;23.70;84.60;;;;;;5018683;28;20025;-79
2021/06/19 04:59:35;;;;;;;8.68;5.30;;;23.70;84.60;;;;;;5018772;28;20092;-80
2021/06/19 05:02:01;;;;;;;8.77;5.10;;;23.60;84.50;;;;;;5018398;28;20080;-79
2021/06/19 05:04:27;;;;;;;11.38;5.28;;;23.70;84.20;;;;;;5018294;28;20024;-79
2021/06/19 05:06:53;;;;;;;11.52;5.63;;;23.70;84.00;;;;;;5018354;28;20083;-79
2021/06/19 05:09:18;;;;;;;8.25;5.07;;;23.70;83.90;;;;;;5017990;28;20048;-79
2021/06/19 05:11:44;;;;;;;7.13;5.22;;;23.70;83.60;;;;;;5018465;28;20064;-79
2021/06/19 05:14:10;;;;;;;10.57;5.30;;;23.70;83.40;;;;;;5035268;28;20401;-80
2021/06/19 05:16:35;;;;;;;8.15;5.05;;;23.70;84.00;;;;;;5018302;28;20029;-79
2021/06/19 05:19:01;;;;;;;9.27;5.20;;;23.70;84.30;;;;;;5035789;28;20060;-80
2021/06/19 05:21:26;;;;;;;7.50;5.00;;;23.70;84.70;;;;;;5016258;28;20029;-79
2021/06/19 05:23:52;;;;;;;12.50;5.20;;;23.80;83.90;;;;;;5018160;28;20029;-80
2021/06/19 05:26:18;;;;;;;9.23;5.25;;;23.80;83.80;;;;;;5017695;28;20029;-79
2021/06/19 05:28:44;;;;;;;6.90;4.93;;;23.80;83.70;;;;;;5035840;28;20406;-80
2021/06/19 05:31:09;;;;;;;7.90;4.90;;;23.80;83.30;;;;;;5017249;28;20040;-80
2021/06/19 05:33:35;;;;;;;6.13;5.18;;;23.90;84.30;;;;;;5017862;28;20022;-80
2021/06/19 05:36:01;;;;;;;8.90;4.70;;;23.90;83.20;;;;;;5035534;28;20021;-80
2021/06/19 05:38:26;;;;;;;12.43;5.10;;;24.00;82.70;;;;;;5017472;28;20049;-79
2021/06/19 05:40:52;;;;;;;8.40;5.05;;;24.00;82.80;;;;;;5017818;28;20378;-80
2021/06/19 05:43:17;;;;;;;9.35;4.93;;;24.00;82.40;;;;;;5021923;28;20053;-80
2021/06/19 05:45:43;;;;;;;7.88;4.65;;;24.10;81.70;;;;;;5037913;28;20025;-80
2021/06/19 05:48:09;;;;;;;7.10;4.53;;;24.10;81.40;;;;;;5037426;28;20085;-80
2021/06/19 05:50:35;;;;;;;8.93;4.70;;;24.10;81.10;;;;;;5055080;28;20017;-80
2021/06/19 05:53:00;;;;;;;9.75;4.57;;;24.20;80.60;;;;;;5037512;28;20063;-80
2021/06/19 05:55:26;;;;;;;6.93;4.40;;;24.20;80.40;;;;;;5037455;28;20028;-79
2021/06/19 05:57:52;;;;;;;7.15;4.10;;;24.20;79.00;;;;;;5037505;28;20025;-79
2021/06/19 06:00:18;;;;;;;4.97;3.58;;;24.20;79.00;;;;;;5036850;28;20473;-79
2021/06/19 06:02:44;;;;;;;5.85;3.92;;;24.20;78.50;;;;;;5037085;28;20123;-78
2021/06/19 06:05:11;;;;;;;6.32;3.85;;;24.30;78.10;;;;;;5036946;28;20025;-79
2021/06/19 06:07:37;;;;;;;5.15;3.72;;;24.30;77.40;;;;;;5036935;28;20020;-79
2021/06/19 06:10:04;;;;;;;8.65;3.75;;;24.30;77.40;;;;;;5054744;28;20028;-79
2021/06/19 06:12:31;;;;;;;6.63;3.83;;;24.30;77.70;;;;;;5053726;28;20041;-79
2021/06/19 06:14:56;;;;;;;7.03;3.78;;;24.30;77.80;;;;;;5036782;28;20033;-79
2021/06/19 06:17:22;;;;;;;5.43;3.88;;;24.30;78.10;;;;;;5036236;28;20390;-79
2021/06/19 06:19:47;;;;;;;7.28;3.78;;;24.40;77.50;;;;;;5036593;28;20420;-79
2021/06/19 06:22:13;;;;;;;6.78;3.58;;;24.40;77.80;;;;;;5036658;28;20021;-80
2021/06/19 06:24:39;;;;;;;5.90;3.92;;;24.40;77.50;;;;;;5054587;28;20107;-80
2021/06/19 06:27:05;;;;;;;6.95;3.50;;;24.40;77.70;;;;;;5036978;28;20021;-80
2021/06/19 06:29:30;;;;;;;4.75;3.55;;;24.40;77.30;;;;;;5036298;28;20029;-80
2021/06/19 06:31:56;;;;;;;6.53;3.55;;;24.50;77.00;;;;;;5054026;28;20021;-80
2021/06/19 06:34:24;;;;;;;4.07;3.40;;;24.50;76.80;;;;;;5036344;28;20029;-76
2021/06/19 06:36:51;;;;;;;7.45;3.80;;;24.50;76.30;;;;;;5036574;28;20123;-79
2021/06/19 06:39:16;;;;;;;7.50;4.03;;;24.60;76.30;;;;;;5036099;28;20458;-80
2021/06/19 06:41:42;;;;;;;5.75;3.50;;;24.70;75.40;;;;;;5054438;28;20036;-77
2021/06/19 06:44:08;;;;;;;5.78;3.40;;;24.60;75.30;;;;;;5035731;28;20159;-77
2021/06/19 06:46:34;;;;;;;4.97;3.20;;;24.70;75.40;;;;;;5035910;28;20028;-80
2021/06/19 06:48:59;;;;;;;7.35;3.83;;;24.70;74.90;;;;;;5036527;28;20493;-80
2021/06/19 06:51:25;;;;;;;8.50;3.40;;;24.80;74.50;;;;;;5053617;28;20025;-80
2021/06/19 06:53:51;;;;;;;9.15;3.30;;;24.80;74.30;;;;;;5036226;28;20458;-79
2021/06/19 06:56:17;;;;;;;5.93;3.58;;;24.80;74.60;;;;;;5035784;28;20370;-79
2021/06/19 06:58:42;;;;;;;4.18;2.88;;;24.80;74.20;;;;;;5054072;28;20096;-79
2021/06/19 07:01:08;;;;;;;4.35;3.10;;;24.80;74.20;;;;;;5036287;28;20025;-80
2021/06/19 07:03:34;;;;;;;7.43;3.70;;;24.80;74.40;;;;;;5035516;28;20289;-79
2021/06/19 07:06:00;;;;;;;6.22;2.78;;;24.80;74.80;;;;;;5036067;28;20355;-79
2021/06/19 07:08:26;;;;;;;7.05;3.53;;;24.90;74.20;;;;;;5035410;28;20079;-79
2021/06/19 07:10:51;;;;;;;7.28;3.75;;;24.90;73.50;;;;;;5035751;28;20020;-80
2021/06/19 07:13:17;;;;;;;5.55;2.63;;;24.90;73.00;;;;;;5035283;28;20059;-80
2021/06/19 07:15:44;;;;;;;6.68;3.25;;;24.90;72.10;;;;;;5035613;28;20017;-80
2021/06/19 07:18:10;;;;;;;5.45;2.65;;;24.90;72.30;;;;;;5035979;28;20048;-80
2021/06/19 07:20:36;;;;;;;8.90;2.70;;;25.00;72.50;;;;;;5035256;28;20080;-80
2021/06/19 07:23:02;;;;;;;7.03;2.92;;;25.00;72.50;;;;;;5036015;28;20017;-80
2021/06/19 07:25:27;;;;;;;5.68;2.95;;;25.00;72.00;;;;;;5053126;28;20017;-79
2021/06/19 07:27:54;;;;;;;5.05;2.65;;;25.00;71.70;;;;;;5035896;28;20071;-80
2021/06/19 07:30:22;;;;;;;5.15;2.67;;;25.00;72.00;;;;;;5035140;28;20546;-80
2021/06/19 07:32:48;;;;;;;5.25;2.80;;;25.00;71.70;;;;;;5032556;28;20370;-80
2021/06/19 07:35:14;;;;;;;6.88;2.47;;;25.10;71.60;;;;;;5035674;28;20124;-79
2021/06/19 07:37:40;;;;;;;4.30;2.70;;;25.10;72.00;;;;;;5035065;28;20025;-79
2021/06/19 07:40:07;;;;;;;3.30;2.45;;;25.20;71.30;;;;;;5035806;28;20021;-80
2021/06/19 07:42:35;;;;;;;4.93;2.60;;;25.20;70.90;;;;;;5034873;28;20064;-80
2021/06/19 07:45:03;;;;;;;4.00;2.50;;;25.20;71.80;;;;;;5034992;28;20128;-80
2021/06/19 07:47:28;;;;;;;4.70;2.78;;;25.30;71.40;;;;;;5035261;28;20021;-80
2021/06/19 07:49:54;;;;;;;4.18;2.58;;;25.30;71.40;;;;;;5035475;28;20017;-79
2021/06/19 07:52:20;;;;;;;3.67;2.47;;;25.30;70.80;;;;;;5034933;28;20071;-76
2021/06/19 07:54:46;;;;;;;6.28;3.22;;;25.30;70.60;;;;;;5053062;28;20031;-77
2021/06/19 07:57:12;;;;;;;6.22;2.70;;;25.30;70.20;;;;;;5035320;28;20021;-79
2021/06/19 07:59:37;;;;;;;4.90;4.07;;;25.40;70.40;;;;;;5029305;28;20110;-80
2021/06/19 08:02:05;;;;;;;8.77;4.65;;;25.40;70.60;;;;;;5034592;28;20520;-80
2021/06/19 08:04:32;;;;;;;7.45;3.45;;;25.50;70.00;;;;;;5034935;28;20492;-80
2021/06/19 08:06:58;;;;;;;5.25;2.72;;;25.50;69.50;;;;;;5035144;28;20025;-79
2021/06/19 08:09:23;;;;;;;7.65;3.40;;;25.50;69.70;;;;;;5034589;28;20075;-79
2021/06/19 08:11:50;;;;;;;5.15;2.83;;;25.60;69.90;;;;;;5035174;28;20028;-80
2021/06/19 08:14:16;;;;;;;7.00;2.65;;;25.70;69.70;;;;;;5035040;28;20040;-80
2021/06/19 08:16:48;;;;;;;4.53;2.78;;;25.60;69.40;;;;;;5052378;28;20093;-79
2021/06/19 08:19:14;;;;;;;4.95;3.00;;;25.60;69.50;;;;;;5035228;28;20115;-79
2021/06/19 08:21:40;;;;;;;4.93;2.47;;;25.70;70.10;;;;;;5052123;28;20126;-79
2021/06/19 08:24:07;;;;;;;4.90;2.65;;;25.80;70.00;;;;;;5052574;28;20032;-78
2021/06/19 08:26:36;;;;;;;3.90;2.97;;;25.80;70.20;;;;;;5033930;28;20094;-78
2021/06/19 08:29:02;;;;;;;5.82;2.63;;;25.80;69.80;;;;;;5034530;28;20032;-78
2021/06/19 08:31:27;;;;;;;4.60;2.88;;;25.80;69.40;;;;;;5034281;28;20394;-79
2021/06/19 08:33:53;;;;;;;3.67;2.70;;;25.90;69.60;;;;;;5035011;28;20078;-79
2021/06/19 08:36:19;;;;;;;6.18;2.78;;;25.90;69.20;;;;;;5034867;28;20431;-79
2021/06/19 08:38:44;;;;;;;3.42;2.42;;;25.80;69.00;;;;;;5034513;28;20477;-78
2021/06/19 08:41:10;;;;;;;4.75;2.50;;;25.90;68.70;;;;;;5034802;28;20033;-78
2021/06/19 08:43:42;;;;;;;4.05;2.40;;;25.90;67.80;;;;;;5032777;28;20052;-78
2021/06/19 08:46:09;;;;;;;5.22;2.78;;;26.00;67.30;;;;;;5034631;28;20033;-79
2021/06/19 08:48:37;;;;;;;6.00;2.33;;;26.00;67.20;;;;;;5034521;28;20060;-79
2021/06/19 08:51:03;;;;;;;6.03;2.88;;;26.10;67.30;;;;;;5052499;28;20110;-79
2021/06/19 08:53:29;;;;;;;7.93;2.47;;;26.10;67.80;;;;;;5051924;28;20057;-78
2021/06/19 08:55:54;;;;;;;4.70;2.67;;;26.20;67.80;;;;;;5055728;28;20060;-79
2021/06/19 08:58:20;;;;;;;6.75;2.92;;;26.20;67.20;;;;;;5038433;28;20032;-79
2021/06/19 09:00:46;;;;;;;5.75;2.55;;;26.20;67.10;;;;;;5038248;28;20025;-79
2021/06/19 09:03:26;;;;;;;4.57;2.53;;;26.20;67.20;;;;;;5038132;28;20082;-78
2021/06/19 09:05:53;;;;;;;4.78;2.70;;;26.30;67.60;;;;;;5038372;28;20048;-79
2021/06/19 09:08:20;;;;;;;7.18;3.50;;;26.30;67.00;;;;;;5055990;28;20055;-78
2021/06/19 09:10:46;;;;;;;8.50;3.50;;;26.30;67.10;;;;;;5037273;28;20047;-78
2021/06/19 09:13:20;;;;;;;5.25;3.40;;;26.30;67.20;;;;;;5037878;28;20037;-79
2021/06/19 09:15:54;;;;;;;6.13;3.22;;;26.30;67.90;;;;;;5037514;28;20035;-78
2021/06/19 09:18:30;;;;;;;7.05;3.20;;;26.40;68.40;;;;;;5037988;28;20125;-79
2021/06/19 09:21:04;;;;;;;5.35;3.20;;;26.40;68.70;;;;;;5038084;28;20118;-78
2021/06/19 09:23:29;;;;;;;7.90;3.47;;;26.60;68.30;;;;;;5037201;28;20619;-79
2021/06/19 09:26:10;;;;;;;6.82;3.00;;;26.60;67.60;;;;;;5037373;28;20061;-78
2021/06/19 09:28:59;;;;;;;6.10;3.63;;;26.70;67.60;;;;;;5054836;28;20047;-78
2021/06/19 09:31:44;;;;;;;5.63;2.90;;;26.70;69.80;;;;;;5036944;28;20055;-80
2021/06/19 09:34:11;;;;;;;7.20;3.75;;;26.70;68.90;;;;;;5037472;28;20033;-80
2021/06/19 09:37:03;;;;;;;5.07;3.00;;;26.80;68.70;;;;;;5046144;28;20035;-77
2021/06/19 09:39:31;;;;;;;4.70;2.90;;;26.80;68.20;;;;;;5025900;28;20049;-77
2021/06/19 09:42:01;;;;;;;7.03;3.45;;;26.80;68.90;;;;;;5034526;28;20064;-77
2021/06/19 09:44:42;;;;;;;5.68;3.30;;;26.90;67.80;;;;;;5029842;28;20049;-77
2021/06/19 09:47:10;;;;;;;3.27;2.80;;;27.00;66.40;;;;;;5054687;28;20091;-76
2021/06/19 09:49:38;;;;;;;7.53;3.22;;;27.00;67.20;;;;;;5052731;28;20584;-76
2021/06/19 09:52:04;;;;;;;5.20;2.92;;;27.00;67.70;;;;;;5053265;28;20127;-77
2021/06/19 09:54:39;;;;;;;5.35;2.88;;;27.10;68.10;;;;;;5053082;28;20101;-78
2021/06/19 09:57:07;;;;;;;3.95;2.80;;;27.20;67.60;;;;;;5055110;28;20458;-79
2021/06/19 09:59:38;;;;;;;10.32;3.92;;;27.30;67.90;;;;;;5052665;28;20128;-79
2021/06/19 10:02:33;;;;;;;5.03;2.95;;;27.30;66.30;;;;;;5053433;28;20059;-76
2021/06/19 10:04:58;;;;;;;5.35;3.25;;;27.40;66.50;;;;;;5040597;28;20044;-76
2021/06/19 10:07:26;;;;;;;4.28;3.13;;;27.40;66.20;;;;;;5055226;28;20400;-77
2021/06/19 10:09:54;;;;;;;6.05;3.22;;;27.40;67.30;;;;;;5056276;28;20068;-76
2021/06/19 10:12:25;;;;;;;7.40;3.20;;;27.50;67.50;;;;;;5056227;28;20035;-75
2021/06/19 10:15:03;;;;;;;5.55;2.90;;;27.50;67.90;;;;;;5074723;28;20493;-76
2021/06/19 10:17:32;;;;;;;4.93;2.83;;;27.60;67.40;;;;;;5055716;28;20028;-78
2021/06/19 10:20:02;;;;;;;5.28;3.10;;;27.70;67.90;;;;;;5056670;28;20028;-78
2021/06/19 10:22:30;;;;;;;5.97;3.77;;;27.80;68.40;;;;;;5055962;28;20028;-78
2021/06/19 10:24:59;;;;;;;3.72;2.70;;;27.80;67.20;;;;;;5056492;28;20025;-78
2021/06/19 10:27:29;;;;;;;6.05;3.10;;;27.90;66.60;;;;;;5055936;28;20021;-80
2021/06/19 10:29:56;;;;;;;5.53;3.17;;;27.90;67.40;;;;;;5056532;28;20020;-80
2021/06/19 10:32:45;;;;;;;6.40;2.70;;;27.90;67.10;;;;;;5056512;28;20032;-79
2021/06/19 10:35:17;;;;;;;3.72;2.90;;;27.90;67.90;;;;;;5056730;28;20043;-79
2021/06/19 10:37:43;;;;;;;6.50;3.40;;;28.00;67.40;;;;;;5056040;28;20024;-79
2021/06/19 10:40:19;;;;;;;5.28;2.90;;;28.00;67.10;;;;;;5056967;28;20029;-81
2021/06/19 10:42:45;;;;;;;7.70;3.30;;;28.10;66.20;;;;;;5055808;28;20236;-77
2021/06/19 10:45:23;;;;;;;4.03;3.00;;;28.10;66.20;;;;;;5056207;28;20469;-79
2021/06/19 10:48:06;;;;;;;6.43;3.30;;;28.20;64.90;;;;;;5073228;28;20028;-78
2021/06/19 10:50:34;;;;;;;7.07;3.10;;;28.30;66.70;;;;;;5055861;28;20027;-78
2021/06/19 10:53:08;;;;;;;4.78;3.40;;;28.30;67.50;;;;;;5056604;28;20028;-78
2021/06/19 10:55:57;;;;;;;6.50;3.30;;;28.30;67.60;;;;;;5073542;28;20111;-79
2021/06/19 10:58:29;;;;;;;5.35;3.25;;;28.40;66.50;;;;;;5056029;28;20052;-79
2021/06/19 11:01:00;;;;;;;7.88;3.38;;;28.40;66.90;;;;;;5073768;28;20020;-79
2021/06/19 11:03:42;;;;;;;5.60;3.95;;;28.40;66.90;;;;;;5055899;28;20051;-78
2021/06/19 11:06:25;;;;;;;6.25;3.50;;;28.50;66.80;;;;;;5048839;28;20044;-78
2021/06/19 11:09:16;;;;;;;5.15;3.30;;;28.50;67.60;;;;;;5035306;28;20108;-80
2021/06/19 11:11:49;;;;;;;5.35;3.72;;;28.50;67.10;;;;;;5035094;28;20484;-78
2021/06/19 11:14:44;;;;;;;5.10;3.08;;;28.70;67.10;;;;;;5035372;28;20136;-76
2021/06/19 11:17:22;;;;;;;6.57;3.47;;;28.80;68.10;;;;;;5034701;28;20029;-76
2021/06/19 11:20:02;;;;;;;7.10;4.10;;;28.90;68.60;;;;;;5033936;28;20021;-77
2021/06/19 11:23:03;;;;;;;4.20;3.15;;;29.00;67.00;;;;;;5034838;28;20405;-77
2021/06/19 11:25:29;;;;;;;6.05;3.22;;;29.10;66.00;;;;;;5035024;28;20021;-77
2021/06/19 11:27:58;;;;;;;47.67;30.02;;;29.10;66.20;;;;;;5035739;28;20457;-77
2021/06/19 11:30:33;;;;;;;70.32;46.85;;;29.20;64.40;;;;;;5052998;28;20122;-79
2021/06/19 11:33:59;;;;;;;13.27;8.07;;;29.30;64.80;;;;;;5035172;28;20116;-79
2021/06/19 11:36:06;;;;;;;6.07;4.50;;;29.40;65.00;;;;;;5033706;28;20029;-79
2021/06/19 11:38:49;;;;;;;6.85;4.05;;;29.50;65.10;;;;;;5026086;28;20029;-79
2021/06/19 11:41:21;;;;;;;10.65;3.95;;;29.60;63.90;;;;;;5027831;28;20040;-80
2021/06/19 11:43:47;;;;;;;7.55;3.80;;;29.60;64.70;;;;;;5034434;28;20136;-79
2021/06/19 11:46:14;;;;;;;6.47;3.33;;;29.70;62.40;;;;;;5034982;28;20028;-77
2021/06/19 11:48:54;;;;;;;11.27;3.80;;;29.70;63.30;;;;;;5051647;28;20394;-77
2021/06/19 11:51:22;;;;;;;6.45;3.85;;;29.80;63.80;;;;;;5052521;28;20032;-77
2021/06/19 11:53:48;;;;;;;7.80;3.80;;;29.90;63.80;;;;;;5052152;28;20051;-78
2021/06/19 11:56:15;;;;;;;7.20;3.55;;;30.00;64.20;;;;;;5052900;28;20024;-78
2021/06/19 11:59:00;;;;;;;8.38;3.67;;;30.10;63.90;;;;;;5034239;28;20052;-76
2021/06/19 12:01:37;;;;;;;5.72;3.30;;;30.20;65.50;;;;;;5052143;28;20028;-77
2021/06/19 12:04:04;;;;;;;9.07;3.80;;;30.30;64.80;;;;;;5034975;28;20442;-77
2021/06/19 12:06:42;;;;;;;5.80;3.83;;;30.40;60.10;;;;;;5035317;28;20108;-77
2021/06/19 12:09:23;;;;;;;7.40;3.92;;;30.50;61.80;;;;;;5072686;28;20137;-77
2021/06/19 12:11:54;;;;;;;8.88;3.30;;;30.60;63.10;;;;;;5055033;28;20028;-77
2021/06/19 12:14:30;;;;;;;13.18;3.58;;;30.60;59.90;;;;;;5072861;28;20061;-78
2021/06/19 12:17:01;;;;;;;8.00;3.78;;;30.60;58.70;;;;;;5055001;28;20024;-77
2021/06/19 12:19:30;;;;;;;7.53;3.50;;;30.70;57.00;;;;;;5072121;28;20025;-77
2021/06/19 12:22:23;;;;;;;9.30;3.40;;;30.80;57.00;;;;;;5054277;28;20032;-77
2021/06/19 12:24:50;;;;;;;11.00;3.38;;;30.90;56.30;;;;;;5049639;28;20028;-76
2021/06/19 12:27:23;;;;;;;9.25;3.60;;;31.00;56.60;;;;;;5054440;28;20025;-77
2021/06/19 12:29:59;;;;;;;9.13;3.60;;;30.90;53.90;;;;;;5055842;28;20021;-77
2021/06/19 12:32:38;;;;;;;8.90;3.50;;;31.00;54.30;;;;;;5057671;28;20036;-78
2021/06/19 12:35:06;;;;;;;8.48;3.60;;;31.10;56.50;;;;;;5076228;28;20020;-77
2021/06/19 12:37:38;;;;;;;10.57;3.50;;;31.10;56.10;;;;;;5048486;28;20034;-77
2021/06/19 12:40:12;;;;;;;7.43;3.60;;;31.20;56.50;;;;;;5038473;28;20017;-77
2021/06/19 12:42:54;;;;;;;11.02;3.40;;;31.20;56.20;;;;;;5038036;28;20025;-77
2021/06/19 12:45:25;;;;;;;9.73;3.33;;;31.30;55.80;;;;;;5038441;28;20049;-77
2021/06/19 12:47:52;;;;;;;6.50;3.72;;;31.40;56.40;;;;;;5037857;28;20032;-76
2021/06/19 12:50:40;;;;;;;6.85;3.47;;;31.50;55.90;;;;;;5038279;28;20025;-77
2021/06/19 12:53:12;;;;;;;9.27;3.70;;;31.40;55.60;;;;;;5037891;28;20028;-77